Time;durP1;ratioP1;P1;durP2;ratioP2;P2;SDS_P1;SDS_P2;PMS_P1;PMS_P2;Temp;Humidity;BMP_temperature;BMP_pressure;BME280_temperature;BME280_humidity;BME280_pressure;Samples;Min_cycle;Max_cycle;Signal;HPM_P1;HPM_P2
2022/05/12 00:00:40;;;;;;;7.90;3.87;;;;;;;20.90;62.49;100136.41;20858752;28;20037;-68
2022/05/12 00:10:42;;;;;;;6.68;3.65;;;;;;;20.83;63.98;100151.91;20858840;28;20053;-67
2022/05/12 00:20:44;;;;;;;6.63;3.83;;;;;;;20.75;63.16;100163.03;20858077;28;20094;-67
2022/05/12 00:30:48;;;;;;;5.97;3.00;;;;;;;20.75;61.14;100165.69;20853230;28;20045;-69
2022/05/12 00:40:50;;;;;;;7.60;3.42;;;;;;;20.54;60.52;100168.81;20867548;28;20052;-69
2022/05/12 00:50:52;;;;;;;7.22;3.00;;;;;;;20.34;60.84;100180.59;20868691;28;20567;-69
2022/05/12 01:00:54;;;;;;;8.98;2.65;;;;;;;20.36;59.79;100202.63;20870503;28;20160;-69
2022/05/12 01:11:03;;;;;;;7.00;2.70;;;;;;;20.29;59.22;100210.13;20870961;28;20498;-69
2022/05/12 01:21:05;;;;;;;5.45;2.03;;;;;;;20.47;56.88;100205.56;20869777;28;20041;-69
2022/05/12 01:31:07;;;;;;;5.82;2.05;;;;;;;20.41;57.48;100219.16;20867778;28;20049;-69
2022/05/12 01:41:09;;;;;;;3.35;1.80;;;;;;;20.42;56.72;100219.09;20880084;22;20056;-73
2022/05/12 01:51:10;;;;;;;2.65;1.50;;;;;;;20.29;57.08;100233.22;20914923;28;20049;-74
2022/05/12 02:01:12;;;;;;;5.93;1.35;;;;;;;20.19;57.26;100264.78;20941353;28;20045;-72
2022/05/12 02:11:14;;;;;;;4.25;1.40;;;;;;;20.08;57.90;100267.22;20867946;28;20106;-72
2022/05/12 02:21:15;;;;;;;7.10;1.48;;;;;;;20.03;57.99;100295.88;20866472;28;20437;-72
2022/05/12 02:31:17;;;;;;;3.65;1.25;;;;;;;19.95;58.66;100312.22;20864696;28;20052;-72
2022/05/12 02:41:18;;;;;;;3.47;1.35;;;;;;;19.73;60.29;100332.00;20864320;28;20084;-73
2022/05/12 02:51:22;;;;;;;2.03;1.00;;;;;;;19.61;61.14;100348.63;20863900;28;20140;-72
2022/05/12 03:01:24;;;;;;;2.80;1.40;;;;;;;19.42;62.48;100363.78;20862557;28;20049;-73
2022/05/12 03:11:26;;;;;;;5.30;1.23;;;;;;;19.20;64.02;100348.13;20859761;28;20052;-72
2022/05/12 03:21:27;;;;;;;2.83;1.70;;;;;;;18.94;65.39;100363.59;20862567;28;20041;-73
2022/05/12 03:31:29;;;;;;;8.85;1.30;;;;;;;18.83;66.48;100378.31;20861471;28;20494;-73
2022/05/12 03:41:31;;;;;;;2.65;1.50;;;;;;;18.63;67.59;100395.19;20861115;28;20486;-73
2022/05/12 03:51:33;;;;;;;5.72;1.38;;;;;;;18.54;68.62;100408.91;20861486;28;20064;-73
2022/05/12 04:01:35;;;;;;;5.68;1.85;;;;;;;18.45;69.60;100445.56;20861326;28;20049;-73
2022/05/12 04:11:37;;;;;;;7.00;1.80;;;;;;;18.49;69.66;100461.28;20868052;28;20103;-73
2022/05/12 04:21:39;;;;;;;3.53;1.40;;;;;;;18.27;71.71;100472.06;20873883;28;20135;-73
2022/05/12 04:31:41;;;;;;;4.38;1.80;;;;;;;18.38;71.98;100475.06;20873768;28;20049;-73
2022/05/12 04:41:43;;;;;;;3.85;1.30;;;;;;;18.68;70.70;100491.31;20869400;28;20516;-73
2022/05/12 04:51:45;;;;;;;5.45;1.65;;;;;;;18.67;71.56;100497.56;20872615;28;20413;-73
2022/05/12 05:01:46;;;;;;;3.50;1.67;;;;;;;18.70;71.51;100508.91;20872227;28;20050;-72
2022/05/12 05:11:48;;;;;;;4.70;1.40;;;;;;;18.77;71.34;100532.50;20871331;28;20478;-73
2022/05/12 05:21:50;;;;;;;5.43;1.40;;;;;;;18.82;71.76;100544.59;20871645;28;20239;-71
2022/05/12 05:31:52;;;;;;;5.38;1.55;;;;;;;18.85;72.34;100565.69;20869808;28;20053;-72
2022/05/12 05:42:03;;;;;;;3.50;1.20;;;;;;;19.07;71.03;100580.56;20869808;28;20044;-72
2022/05/12 06:02:25;;;;;;;4.05;1.40;;;;;;;19.36;70.37;100603.09;20855699;28;20040;-72
2022/05/12 06:12:28;;;;;;;4.00;1.13;;;;;;;19.52;70.20;100606.69;20780659;28;20070;-72
2022/05/12 06:22:29;;;;;;;4.40;1.38;;;;;;;19.46;69.33;100610.50;20782778;28;20049;-72
2022/05/12 06:32:30;;;;;;;4.03;1.27;;;;;;;19.38;69.96;100625.09;20903933;28;20517;-72
2022/05/12 06:42:35;;;;;;;6.57;1.38;;;;;;;19.52;67.87;100630.59;21029557;28;20072;-72
2022/05/12 06:52:36;;;;;;;4.00;1.33;;;;;;;19.39;66.84;100656.03;21028990;28;20045;-72
2022/05/12 07:02:39;;;;;;;5.65;1.60;;;;;;;19.60;66.80;100663.00;21023208;28;20080;-72
2022/05/12 07:12:44;;;;;;;6.55;1.58;;;;;;;19.57;65.13;100652.47;21020563;28;20047;-72
2022/05/12 07:33:06;;;;;;;5.35;1.20;;;;;;;19.76;65.50;100663.09;21013324;28;20548;-71
2022/05/12 07:43:08;;;;;;;5.88;1.27;;;;;;;19.94;64.67;100656.00;21015564;28;20105;-71
2022/05/12 07:53:09;;;;;;;4.32;1.40;;;;;;;20.20;63.99;100667.97;21017660;28;20488;-72
2022/05/12 08:03:11;;;;;;;6.45;1.50;;;;;;;20.48;62.84;100686.03;21017025;28;20130;-72
2022/05/12 08:13:16;;;;;;;4.18;1.30;;;;;;;20.56;61.85;100678.53;21016329;28;20048;-72
2022/05/12 08:23:18;;;;;;;3.53;1.30;;;;;;;21.04;61.41;100678.63;21012512;28;20048;-72
2022/05/12 08:33:20;;;;;;;7.97;1.50;;;;;;;21.27;59.50;100689.75;21015019;28;20041;-72
2022/05/12 08:43:28;;;;;;;5.93;1.30;;;;;;;21.37;59.73;100691.94;21014533;28;20040;-72
2022/05/12 08:53:39;;;;;;;5.40;1.10;;;;;;;21.16;58.86;100694.78;21015502;28;20493;-71
2022/05/12 09:04:10;;;;;;;4.35;1.50;;;;;;;21.15;58.99;100695.72;21028110;28;20049;-72
2022/05/12 09:14:32;;;;;;;5.40;1.27;;;;;;;21.68;56.21;100694.56;21027475;28;20048;-71
2022/05/12 09:24:34;;;;;;;3.40;1.00;;;;;;;21.90;54.23;100707.53;21024240;28;20492;-72
2022/05/12 09:34:43;;;;;;;6.18;1.30;;;;;;;21.93;54.06;100706.47;21028331;28;20109;-72
2022/05/12 09:44:55;;;;;;;4.18;1.10;;;;;;;21.90;54.38;100707.53;21026046;28;20109;-72
2022/05/12 09:55:18;;;;;;;8.45;1.58;;;;;;;21.88;54.58;100695.22;21021925;28;20462;-72
2022/05/12 10:15:43;;;;;;;5.65;1.13;;;;;;;22.28;51.67;100669.78;21018703;28;20059;-73
2022/05/12 10:25:58;;;;;;;4.80;0.90;;;;;;;22.14;51.70;100662.59;21021402;28;20049;-71
2022/05/12 10:36:28;;;;;;;3.03;1.00;;;;;;;22.60;49.53;100670.47;21017088;28;20048;-71
2022/05/12 10:46:48;;;;;;;3.55;1.50;;;;;;;22.51;50.39;100655.00;21020655;28;20048;-72
2022/05/12 10:57:27;;;;;;;2.58;0.93;;;;;;;23.06;49.49;100646.25;21014246;28;20052;-71
2022/05/12 11:07:34;;;;;;;3.65;1.08;;;;;;;22.53;50.88;100639.78;21018794;28;20122;-72
2022/05/12 11:17:44;;;;;;;3.53;0.80;;;;;;;22.86;49.06;100630.63;21017642;28;20061;-71
2022/05/12 11:29:41;;;;;;;4.78;1.00;;;;;;;23.41;49.28;100629.75;21016485;28;20055;-71
2022/05/12 11:38:37;;;;;;;3.72;1.17;;;;;;;23.03;48.76;100619.75;21015509;28;20047;-72
2022/05/12 11:48:48;;;;;;;5.35;0.95;;;;;;;23.00;48.70;100614.63;21017287;28;20051;-72
2022/05/12 11:59:36;;;;;;;2.47;1.13;;;;;;;23.13;48.63;100618.19;21018011;28;20131;-72
2022/05/12 12:09:37;;;;;;;4.03;1.10;;;;;;;23.42;47.33;100594.91;21007664;28;20505;-72
2022/05/12 12:19:49;;;;;;;3.05;1.20;;;;;;;23.36;47.00;100594.47;21015858;28;20044;-72
2022/05/12 12:29:51;;;;;;;4.20;1.10;;;;;;;23.87;47.15;100586.63;21016391;28;20075;-72
2022/05/12 12:39:52;;;;;;;7.30;1.33;;;;;;;23.77;45.59;100587.25;21026865;28;20366;-72
2022/05/12 12:50:16;;;;;;;3.35;1.10;;;;;;;24.35;45.51;100579.69;21030251;28;20050;-71
2022/05/12 13:00:33;;;;;;;5.25;1.10;;;;;;;24.67;44.27;100558.69;21026617;28;20062;-72
2022/05/12 13:10:46;;;;;;;4.53;1.10;;;;;;;24.43;44.55;100539.88;21027859;28;20040;-72
2022/05/12 13:20:49;;;;;;;5.10;1.25;;;;;;;24.86;43.21;100533.25;21028454;28;20440;-72
2022/05/12 13:31:23;;;;;;;2.83;1.10;;;;;;;24.78;43.26;100534.69;21026980;28;20040;-72
2022/05/12 13:41:27;;;;;;;3.30;0.90;;;;;;;24.63;43.28;100524.22;21025545;28;20411;-72
2022/05/12 13:51:48;;;;;;;3.78;1.02;;;;;;;24.64;43.63;100502.69;21026143;28;20048;-73
2022/05/12 14:02:17;;;;;;;3.78;1.20;;;;;;;24.52;44.28;100496.38;21022393;28;20454;-72
2022/05/12 14:12:22;;;;;;;4.95;1.02;;;;;;;24.74;44.23;100478.78;21023657;28;20536;-72
2022/05/12 14:22:24;;;;;;;3.22;1.15;;;;;;;24.44;45.31;100476.53;21024019;28;20694;-72
2022/05/12 14:32:33;;;;;;;5.43;1.42;;;;;;;24.85;44.50;100475.28;21022288;28;20506;-72
2022/05/12 14:42:40;;;;;;;2.63;1.00;;;;;;;23.94;48.16;100487.13;21022112;28;20447;-72
2022/05/12 14:52:42;;;;;;;5.97;1.42;;;;;;;24.34;48.13;100481.66;21020414;28;20048;-72
2022/05/12 15:02:44;;;;;;;5.28;0.93;;;;;;;23.96;50.11;100481.69;21018604;28;20113;-72
2022/05/12 15:12:46;;;;;;;3.38;1.27;;;;;;;24.03;49.09;100477.63;21015643;28;20132;-73
2022/05/12 15:22:49;;;;;;;5.25;1.13;;;;;;;24.31;48.23;100466.66;21019487;28;20056;-72
2022/05/12 15:32:52;;;;;;;3.90;1.00;;;;;;;24.13;49.93;100467.13;21018102;28;20051;-72
2022/05/12 15:42:53;;;;;;;4.78;1.40;;;;;;;23.80;52.70;100469.38;21018392;28;20055;-72
2022/05/12 15:52:58;;;;;;;5.10;1.20;;;;;;;23.84;52.92;100480.72;21017063;28;20098;-72
2022/05/12 16:03:00;;;;;;;5.88;1.23;;;;;;;23.68;53.69;100491.63;21018286;28;20044;-72
2022/05/12 16:13:02;;;;;;;3.83;1.13;;;;;;;23.56;52.58;100487.94;21032294;28;20056;-73
2022/05/12 16:23:03;;;;;;;5.32;1.30;;;;;;;23.79;52.42;100491.72;21032197;28;20057;-72
2022/05/12 16:33:05;;;;;;;3.95;1.35;;;;;;;23.91;52.61;100483.84;21030985;28;20098;-73
2022/05/12 16:43:07;;;;;;;4.80;1.20;;;;;;;23.62;53.70;100489.34;21027391;28;20448;-72
2022/05/12 16:53:10;;;;;;;3.67;1.00;;;;;;;23.64;54.08;100476.75;21030324;28;20056;-72
2022/05/12 17:03:11;;;;;;;2.08;1.10;;;;;;;23.45;53.60;100469.09;21028342;28;20045;-73
2022/05/12 17:13:14;;;;;;;2.30;1.05;;;;;;;23.27;54.43;100473.03;21028584;28;20048;-72
2022/05/12 17:23:16;;;;;;;3.30;1.48;;;;;;;23.03;55.90;100480.88;21027865;28;20731;-72
2022/05/12 17:33:17;;;;;;;5.43;1.42;;;;;;;22.90;56.82;100485.28;21026090;28;20048;-72
2022/05/12 17:43:19;;;;;;;5.68;1.30;;;;;;;22.72;58.74;100482.84;21026117;28;20053;-73
2022/05/12 17:53:20;;;;;;;7.10;1.33;;;;;;;22.48;59.54;100471.09;21025879;28;20052;-73
2022/05/12 18:03:22;;;;;;;4.82;1.20;;;;;;;22.31;60.14;100492.66;21023520;28;20052;-72
2022/05/12 18:13:24;;;;;;;5.20;1.65;;;;;;;22.23;61.83;100498.44;21020526;28;20056;-73
2022/05/12 18:23:25;;;;;;;5.65;1.70;;;;;;;22.16;61.81;100489.97;21023879;28;20517;-73
2022/05/12 18:33:27;;;;;;;4.32;1.90;;;;;;;21.95;70.84;100491.31;21023163;28;20559;-73
2022/05/12 18:43:29;;;;;;;9.98;2.80;;;;;;;21.63;75.18;100506.56;21022598;28;20112;-74
2022/05/12 18:53:32;;;;;;;9.38;3.10;;;;;;;21.23;77.38;100514.22;21020830;28;20139;-74
2022/05/12 19:03:33;;;;;;;7.53;2.90;;;;;;;20.97;78.68;100534.34;21018091;28;20048;-75
2022/05/12 19:13:38;;;;;;;10.80;3.35;;;;;;;20.82;79.76;100561.81;21015707;28;20685;-75
2022/05/12 19:23:39;;;;;;;7.53;2.78;;;;;;;20.63;80.15;100568.16;21018044;28;20080;-75
2022/05/12 19:33:42;;;;;;;6.57;3.00;;;;;;;20.53;81.94;100572.28;21016967;28;20048;-76
2022/05/12 19:43:43;;;;;;;7.25;3.03;;;;;;;20.45;82.75;100572.63;21104187;22;20048;-68
2022/05/12 19:53:45;;;;;;;8.27;3.67;;;;;;;20.19;84.37;100595.31;20976190;28;20562;-69
2022/05/12 20:03:51;;;;;;;8.23;3.35;;;;;;;20.22;84.53;100594.31;20974224;28;20037;-68
2022/05/12 20:13:52;;;;;;;6.25;3.47;;;;;;;20.16;85.54;100582.16;20971946;28;20048;-69
2022/05/12 20:23:54;;;;;;;9.85;3.80;;;;;;;20.02;86.63;100592.66;20974363;28;20102;-68
2022/05/12 20:33:57;;;;;;;8.55;3.78;;;;;;;19.82;87.58;100603.47;20972994;28;20139;-69
2022/05/12 20:43:59;;;;;;;9.38;4.07;;;;;;;19.55;89.14;100618.97;20974545;28;20062;-69
2022/05/12 20:54:03;;;;;;;5.25;3.03;;;;;;;19.52;85.98;100621.78;20983089;28;20066;-69
2022/05/12 21:04:05;;;;;;;8.38;2.78;;;;;;;19.67;81.42;100629.88;20986378;28;20041;-69
2022/05/12 21:14:07;;;;;;;6.32;2.13;;;;;;;19.66;79.67;100643.22;20987155;28;20052;-68
2022/05/12 21:24:08;;;;;;;8.48;2.70;;;;;;;19.78;77.82;100653.22;20986873;28;20110;-69
2022/05/12 21:34:10;;;;;;;6.88;2.03;;;;;;;19.68;77.50;100651.97;20984676;28;20040;-69
2022/05/12 21:44:12;;;;;;;4.68;1.73;;;;;;;19.55;77.39;100651.72;20984786;28;20045;-68
2022/05/12 21:54:13;;;;;;;4.55;1.67;;;;;;;19.46;78.04;100647.69;20983872;28;20054;-67
2022/05/12 22:04:19;;;;;;;6.90;2.00;;;;;;;19.35;77.24;100641.16;20981953;28;20488;-67
2022/05/12 22:14:21;;;;;;;5.28;1.65;;;;;;;19.22;77.65;100659.50;20986571;28;20361;-69
2022/05/12 22:24:23;;;;;;;3.25;1.70;;;;;;;19.23;76.62;100656.75;20987409;28;20485;-69
2022/05/12 22:34:25;;;;;;;4.03;1.67;;;;;;;19.17;76.59;100667.69;20988745;28;20114;-69
2022/05/12 22:44:27;;;;;;;4.70;1.70;;;;;;;19.17;75.73;100665.03;20988751;28;20052;-68
2022/05/12 22:54:31;;;;;;;6.25;2.08;;;;;;;19.19;74.71;100655.19;20986933;28;20133;-69
2022/05/12 23:04:32;;;;;;;4.43;1.67;;;;;;;19.17;74.42;100656.19;20980254;28;20056;-69
2022/05/12 23:14:34;;;;;;;5.57;1.70;;;;;;;18.97;76.28;100665.06;20985113;28;20060;-68
2022/05/12 23:24:39;;;;;;;5.43;1.85;;;;;;;18.95;75.91;100666.94;20984810;28;20102;-68
2022/05/12 23:34:40;;;;;;;7.32;1.80;;;;;;;18.87;75.77;100666.44;20983554;28;20053;-68
2022/05/12 23:44:43;;;;;;;6.00;2.00;;;;;;;18.75;75.89;100659.91;20983869;28;20048;-68
2022/05/12 23:54:46;;;;;;;8.40;2.10;;;;;;;18.80;75.69;100660.56;20979957;28;20389;-68
